createdAt,value
2022-12-10T00:00:43.925Z,19.90
2022-12-10T00:03:10.290Z,17.05
2022-12-10T00:05:36.717Z,20.15
2022-12-10T00:08:03.188Z,19.35
2022-12-10T00:10:29.537Z,18.42
2022-12-10T00:12:56.092Z,18.63
2022-12-10T00:15:22.410Z,19.35
2022-12-10T00:17:48.796Z,19.83
2022-12-10T00:20:15.281Z,19.70
2022-12-10T00:22:41.584Z,19.48
2022-12-10T00:25:08.423Z,19.98
2022-12-10T00:27:34.741Z,19.67
2022-12-10T00:30:01.077Z,19.48
2022-12-10T00:32:27.443Z,20.85
2022-12-10T00:34:53.780Z,20.45
2022-12-10T00:37:20.081Z,19.88
2022-12-10T00:39:46.617Z,19.38
2022-12-10T00:42:12.936Z,20.20
2022-12-10T00:44:39.232Z,19.38
2022-12-10T00:47:05.621Z,21.88
2022-12-10T00:49:32.086Z,20.15
2022-12-10T00:51:58.474Z,19.58
2022-12-10T00:54:24.824Z,22.05
2022-12-10T00:56:51.349Z,20.63
2022-12-10T00:59:17.673Z,20.38
2022-12-10T01:01:44.429Z,20.10
2022-12-10T01:04:15.071Z,20.45
2022-12-10T01:06:49.673Z,21.85
2022-12-10T01:09:19.697Z,20.50
2022-12-10T01:11:48.089Z,20.63
2022-12-10T01:14:23.669Z,19.75
2022-12-10T01:19:17.465Z,17.60
2022-12-10T01:21:43.822Z,18.63
2022-12-10T01:24:10.139Z,21.38
2022-12-10T01:26:37.367Z,21.70
2022-12-10T01:29:05.200Z,23.00
2022-12-10T01:31:37.588Z,22.77
2022-12-10T01:34:06.453Z,21.67
2022-12-10T01:36:36.804Z,20.48
2022-12-10T01:39:05.187Z,21.83
2022-12-10T01:41:37.727Z,21.40
2022-12-10T01:44:09.209Z,19.83
2022-12-10T01:46:41.318Z,20.92
2022-12-10T01:49:27.362Z,21.75
2022-12-10T01:54:43.650Z,18.15
2022-12-10T01:57:19.809Z,19.60
2022-12-10T01:59:49.282Z,19.48
2022-12-10T02:02:56.675Z,20.42
2022-12-10T02:05:43.215Z,18.92
2022-12-10T02:08:25.601Z,19.85
2022-12-10T02:10:58.070Z,19.80
2022-12-10T02:13:45.360Z,20.08
2022-12-10T02:16:25.726Z,18.15
2022-12-10T02:19:01.667Z,21.17
2022-12-10T02:21:37.374Z,20.58
2022-12-10T02:26:44.425Z,17.60
2022-12-10T02:29:25.379Z,19.95
2022-12-10T02:31:54.924Z,21.23
2022-12-10T02:34:23.980Z,23.38
2022-12-10T02:36:54.053Z,22.63
2022-12-10T02:39:28.229Z,21.00
2022-12-10T02:41:55.702Z,20.27
2022-12-10T02:44:24.353Z,21.90
2022-12-10T02:46:53.992Z,20.60
2022-12-10T02:49:22.589Z,23.35
2022-12-10T02:51:48.910Z,22.52
2022-12-10T02:54:41.984Z,22.38
2022-12-10T02:57:19.241Z,22.65
2022-12-10T03:00:09.919Z,22.92
2022-12-10T03:02:42.960Z,22.65
2022-12-10T03:05:40.846Z,21.20
2022-12-10T03:08:13.533Z,21.65
2022-12-10T03:10:48.843Z,20.52
2022-12-10T03:13:18.858Z,20.27
2022-12-10T03:15:48.660Z,19.05
2022-12-10T03:18:17.917Z,19.95
2022-12-10T03:20:47.168Z,20.65
2022-12-10T03:23:17.968Z,20.75
2022-12-10T03:25:45.354Z,20.50
2022-12-10T03:28:11.871Z,20.08
2022-12-10T03:30:42.802Z,20.23
2022-12-10T03:33:09.982Z,19.95
2022-12-10T03:35:36.551Z,20.35
2022-12-10T03:38:03.891Z,20.45
2022-12-10T03:40:30.457Z,20.27
2022-12-10T03:42:56.762Z,20.20
2022-12-10T03:45:23.254Z,20.73
2022-12-10T03:47:50.348Z,18.35
2022-12-10T03:50:16.869Z,15.77
2022-12-10T03:52:43.296Z,15.13
2022-12-10T03:55:10.167Z,17.85
2022-12-10T03:57:36.607Z,19.00
2022-12-10T04:00:06.262Z,16.00
2022-12-10T04:02:33.053Z,14.77
2022-12-10T04:04:59.379Z,14.20
2022-12-10T04:07:25.789Z,13.68
2022-12-10T04:09:52.111Z,16.42
2022-12-10T04:12:18.427Z,16.70
2022-12-10T04:15:03.375Z,18.08
2022-12-10T04:17:33.367Z,15.45
2022-12-10T04:19:59.683Z,14.13
2022-12-10T04:22:44.797Z,14.40
2022-12-10T04:25:33.390Z,15.73
2022-12-10T04:27:59.745Z,16.02
2022-12-10T04:30:26.116Z,17.13
2022-12-10T04:32:52.484Z,15.90
2022-12-10T04:35:18.963Z,15.80
2022-12-10T04:37:45.277Z,14.10
2022-12-10T04:40:12.340Z,13.93
2022-12-10T04:42:38.786Z,13.35
2022-12-10T04:45:05.791Z,12.95
2022-12-10T04:47:32.156Z,13.85
2022-12-10T04:49:58.469Z,14.88
2022-12-10T04:52:24.765Z,16.35
2022-12-10T04:54:51.100Z,16.67
2022-12-10T04:57:17.495Z,18.33
2022-12-10T04:59:44.144Z,16.27
2022-12-10T05:02:10.601Z,17.63
2022-12-10T05:04:37.150Z,15.90
2022-12-10T05:07:03.700Z,15.05
2022-12-10T05:09:30.117Z,16.65
2022-12-10T05:11:56.449Z,16.63
2022-12-10T05:14:23.031Z,16.67
2022-12-10T05:16:52.440Z,17.30
2022-12-10T05:19:20.769Z,17.88
2022-12-10T05:22:18.931Z,18.17
2022-12-10T05:24:45.319Z,14.38
2022-12-10T05:27:11.627Z,15.70
2022-12-10T05:29:37.947Z,17.30
2022-12-10T05:32:05.577Z,16.08
2022-12-10T05:34:31.938Z,16.55
2022-12-10T05:36:58.418Z,17.63
2022-12-10T05:39:24.865Z,18.50
2022-12-10T05:41:51.437Z,17.92
2022-12-10T05:44:17.905Z,20.13
2022-12-10T05:46:44.340Z,19.25
2022-12-10T05:49:10.768Z,19.45
2022-12-10T05:51:38.518Z,18.48
2022-12-10T05:54:06.586Z,18.85
2022-12-10T05:56:33.085Z,17.98
2022-12-10T05:59:01.521Z,17.52
2022-12-10T06:01:32.785Z,17.85
2022-12-10T06:04:00.964Z,19.10
2022-12-10T06:06:30.945Z,17.60
2022-12-10T06:08:58.352Z,17.48
2022-12-10T06:11:27.220Z,17.05
2022-12-10T06:13:56.693Z,16.88
2022-12-10T06:16:24.443Z,16.60
2022-12-10T06:18:50.868Z,15.70
2022-12-10T06:21:17.977Z,16.98
2022-12-10T06:23:45.502Z,17.02
2022-12-10T06:26:18.731Z,18.25
2022-12-10T06:28:46.949Z,17.73
2022-12-10T06:31:14.285Z,18.33
2022-12-10T06:33:41.000Z,17.40
2022-12-10T06:36:09.964Z,17.08
2022-12-10T06:38:36.887Z,17.73
2022-12-10T06:41:09.151Z,18.15
2022-12-10T06:43:35.895Z,18.60
2022-12-10T06:46:09.785Z,19.77
2022-12-10T06:48:37.092Z,17.80
2022-12-10T06:51:04.420Z,19.48
2022-12-10T06:53:32.484Z,19.23
2022-12-10T06:56:00.749Z,19.00
2022-12-10T06:58:31.547Z,19.85
2022-12-10T07:01:09.683Z,19.90
2022-12-10T07:03:36.374Z,19.10
2022-12-10T07:06:04.046Z,18.35
2022-12-10T07:08:31.003Z,18.65
2022-12-10T07:10:57.726Z,18.13
2022-12-10T07:13:30.506Z,19.77
2022-12-10T07:15:58.281Z,17.27
2022-12-10T07:18:24.928Z,17.67
2022-12-10T07:20:51.289Z,18.30
2022-12-10T07:23:17.652Z,17.98
2022-12-10T07:25:44.009Z,17.13
2022-12-10T07:28:10.584Z,17.90
2022-12-10T07:30:37.079Z,17.25
2022-12-10T07:33:03.495Z,17.27
2022-12-10T07:35:29.846Z,18.30
2022-12-10T07:37:56.235Z,18.17
2022-12-10T07:40:22.595Z,15.93
2022-12-10T07:42:48.924Z,16.42
2022-12-10T07:45:15.300Z,16.52
2022-12-10T07:47:41.657Z,17.08
2022-12-10T07:50:09.021Z,17.85
2022-12-10T07:52:35.633Z,18.73
2022-12-10T07:55:02.203Z,18.70
2022-12-10T07:57:30.987Z,20.40
2022-12-10T07:59:57.352Z,19.63
2022-12-10T08:02:23.688Z,18.88
2022-12-10T08:04:50.058Z,19.15
2022-12-10T08:07:16.387Z,19.58
2022-12-10T08:09:42.800Z,18.83
2022-12-10T08:12:09.247Z,18.15
2022-12-10T08:14:35.676Z,18.75
2022-12-10T08:17:02.177Z,20.05
2022-12-10T08:19:31.617Z,18.15
2022-12-10T08:21:58.467Z,19.02
2022-12-10T08:24:24.792Z,20.67
2022-12-10T08:26:51.199Z,20.15
2022-12-10T08:29:17.573Z,19.08
2022-12-10T08:31:43.962Z,21.05
2022-12-10T08:34:15.501Z,21.33
2022-12-10T08:36:42.847Z,19.25
2022-12-10T08:39:11.227Z,24.35
2022-12-10T08:41:37.696Z,20.60
2022-12-10T08:44:04.226Z,23.52
2022-12-10T08:46:30.635Z,21.75
2022-12-10T08:48:56.969Z,23.27
2022-12-10T08:51:23.698Z,23.30
2022-12-10T08:53:50.080Z,22.35
2022-12-10T08:56:16.557Z,21.20
2022-12-10T08:58:43.381Z,20.30
2022-12-10T09:01:19.363Z,20.83
2022-12-10T09:03:46.204Z,21.02
2022-12-10T09:06:17.302Z,22.52
2022-12-10T09:08:44.659Z,20.50
2022-12-10T09:11:16.752Z,22.88
2022-12-10T09:13:43.676Z,21.27
2022-12-10T09:16:10.473Z,22.70
2022-12-10T09:18:36.945Z,22.55
2022-12-10T09:21:11.308Z,22.08
2022-12-10T09:23:50.777Z,21.70
2022-12-10T09:26:17.660Z,21.60
2022-12-10T09:28:44.998Z,21.45
2022-12-10T09:31:16.059Z,22.13
2022-12-10T09:33:48.241Z,22.50
2022-12-10T09:36:15.207Z,21.55
2022-12-10T09:38:43.545Z,22.45
2022-12-10T09:41:43.690Z,27.45
2022-12-10T09:44:24.002Z,22.60
2022-12-10T09:46:59.251Z,23.10
2022-12-10T09:49:34.450Z,21.75
2022-12-10T09:52:19.629Z,23.20
2022-12-10T09:55:17.529Z,20.95
2022-12-10T09:57:48.561Z,22.52
2022-12-10T10:00:30.968Z,22.67
2022-12-10T10:03:00.446Z,22.05
2022-12-10T10:05:33.724Z,23.20
2022-12-10T10:08:06.588Z,24.90
2022-12-10T10:10:36.239Z,23.52
2022-12-10T10:13:08.465Z,24.27
2022-12-10T10:15:37.853Z,23.85
2022-12-10T10:18:14.338Z,24.55
2022-12-10T10:20:40.999Z,22.58
2022-12-10T10:23:08.890Z,24.42
2022-12-10T10:25:35.603Z,24.17
2022-12-10T10:28:02.851Z,24.55
2022-12-10T10:30:30.686Z,23.65
2022-12-10T10:32:58.511Z,23.48
2022-12-10T10:35:24.957Z,23.00
2022-12-10T10:37:52.853Z,24.38
2022-12-10T10:40:32.928Z,24.23
2022-12-10T10:43:00.960Z,25.00
2022-12-10T10:45:35.350Z,24.55
2022-12-10T10:48:06.305Z,24.73
2022-12-10T10:50:44.722Z,25.27
2022-12-10T10:53:56.079Z,22.90
2022-12-10T10:56:40.294Z,24.33
2022-12-10T10:59:34.664Z,23.55
2022-12-10T11:02:16.763Z,24.10
2022-12-10T11:04:54.919Z,23.75
2022-12-10T11:07:37.361Z,24.33
2022-12-10T11:10:19.059Z,24.38
2022-12-10T11:12:56.149Z,24.67
2022-12-10T11:15:22.394Z,26.67
2022-12-10T11:17:51.224Z,25.63
2022-12-10T11:20:22.417Z,24.52
2022-12-10T11:22:55.084Z,25.63
2022-12-10T11:25:28.674Z,23.90
2022-12-10T11:28:21.340Z,24.52
2022-12-10T11:31:00.228Z,24.65
2022-12-10T11:33:45.542Z,25.17
2022-12-10T11:38:59.987Z,23.73
2022-12-10T11:41:46.546Z,23.65
2022-12-10T11:45:05.725Z,23.45
2022-12-10T11:47:47.093Z,22.67
2022-12-10T11:50:23.204Z,23.63
2022-12-10T11:53:08.316Z,23.50
2022-12-10T11:55:43.530Z,22.55
2022-12-10T11:58:12.728Z,22.42
2022-12-10T12:01:14.630Z,24.27
2022-12-10T12:04:08.808Z,22.58
2022-12-10T12:06:49.898Z,22.88
2022-12-10T12:09:40.621Z,21.17
2022-12-10T12:12:31.246Z,22.70
2022-12-10T12:15:01.022Z,24.38
2022-12-10T12:17:29.832Z,23.52
2022-12-10T12:20:01.679Z,24.38
2022-12-10T12:22:43.011Z,23.98
2022-12-10T12:25:19.906Z,22.20
2022-12-10T12:27:52.226Z,23.85
2022-12-10T12:30:23.271Z,22.98
2022-12-10T12:32:58.798Z,22.75
2022-12-10T12:35:37.654Z,24.48
2022-12-10T12:38:26.840Z,23.55
2022-12-10T12:41:00.338Z,22.98
2022-12-10T12:43:38.616Z,24.55
2022-12-10T12:46:13.777Z,25.48
2022-12-10T12:48:51.373Z,25.13
2022-12-10T12:51:28.142Z,24.67
2022-12-10T12:53:54.542Z,24.38
2022-12-10T12:56:56.613Z,24.60
2022-12-10T12:59:47.778Z,24.23
2022-12-10T13:02:27.723Z,24.40
2022-12-10T13:04:54.539Z,25.08
2022-12-10T13:07:20.790Z,25.88
2022-12-10T13:09:52.459Z,25.45
2022-12-10T13:12:31.288Z,24.88
2022-12-10T13:15:01.080Z,24.73
2022-12-10T13:17:32.832Z,25.50
2022-12-10T13:20:31.192Z,25.60
2022-12-10T13:23:01.081Z,25.23
2022-12-10T13:25:42.306Z,25.00
2022-12-10T13:28:31.154Z,25.25
2022-12-10T13:31:15.937Z,24.52
2022-12-10T13:33:54.342Z,25.00
2022-12-10T13:36:47.242Z,26.25
2022-12-10T13:39:33.680Z,26.00
2022-12-10T13:42:24.829Z,25.55
2022-12-10T13:45:00.714Z,25.50
2022-12-10T13:48:08.887Z,26.55
2022-12-10T13:50:53.748Z,26.10
2022-12-10T13:53:38.056Z,24.63
2022-12-10T13:56:14.990Z,24.20
2022-12-10T13:58:59.175Z,24.40
2022-12-10T14:01:41.008Z,25.15
2022-12-10T14:04:28.200Z,26.85
2022-12-10T14:06:54.878Z,27.30
2022-12-10T14:09:27.118Z,25.63
2022-12-10T14:12:01.680Z,27.38
2022-12-10T14:14:35.137Z,26.63
2022-12-10T14:17:16.741Z,27.35
2022-12-10T14:19:45.695Z,27.02
2022-12-10T14:22:29.987Z,26.90
2022-12-10T14:25:00.494Z,25.65
2022-12-10T14:27:28.170Z,28.45
2022-12-10T14:30:01.164Z,28.08
2022-12-10T14:32:36.320Z,27.35
2022-12-10T14:35:05.887Z,26.90
2022-12-10T14:37:36.932Z,27.83
2022-12-10T14:40:06.829Z,27.10
2022-12-10T14:42:34.002Z,27.83
2022-12-10T14:45:04.844Z,27.77
2022-12-10T14:47:46.756Z,28.58
2022-12-10T14:50:15.968Z,26.55
2022-12-10T14:52:50.806Z,26.98
2022-12-10T14:55:22.816Z,26.83
2022-12-10T14:57:54.073Z,26.88
2022-12-10T15:00:23.614Z,26.02
2022-12-10T15:03:01.704Z,26.25
2022-12-10T15:05:31.506Z,24.70
2022-12-10T15:08:02.262Z,26.38
2022-12-10T15:10:37.913Z,26.27
2022-12-10T15:13:05.978Z,28.15
2022-12-10T15:15:36.935Z,29.90
2022-12-10T15:18:15.827Z,31.42
2022-12-10T15:20:51.186Z,30.92
2022-12-10T15:23:29.388Z,29.20
2022-12-10T15:26:00.121Z,30.83
2022-12-10T15:28:35.569Z,30.35
2022-12-10T15:31:14.380Z,29.85
2022-12-10T15:33:49.712Z,29.25
2022-12-10T15:36:26.517Z,28.77
2022-12-10T15:38:52.962Z,28.30
2022-12-10T15:41:43.147Z,29.45
2022-12-10T15:44:40.810Z,28.00
2022-12-10T15:47:25.163Z,29.15
2022-12-10T15:49:54.648Z,28.45
2022-12-10T15:52:25.288Z,30.75
2022-12-10T15:54:53.477Z,28.75
2022-12-10T15:57:21.446Z,31.48
2022-12-10T15:59:56.958Z,29.77
2022-12-10T16:02:45.026Z,30.80
2022-12-10T16:05:15.898Z,27.73
2022-12-10T16:07:42.877Z,30.08
2022-12-10T16:10:12.293Z,29.55
2022-12-10T16:12:40.641Z,30.13
2022-12-10T16:15:12.825Z,30.25
2022-12-10T16:17:39.197Z,31.33
2022-12-10T16:20:14.774Z,30.30
2022-12-10T16:22:41.106Z,31.20
2022-12-10T16:25:07.862Z,30.58
2022-12-10T16:27:37.461Z,31.42
2022-12-10T16:30:14.374Z,30.73
2022-12-10T16:32:40.703Z,32.13
2022-12-10T16:35:07.381Z,31.15
2022-12-10T16:37:33.701Z,31.15
2022-12-10T16:40:00.643Z,31.50
2022-12-10T16:42:27.667Z,33.00
2022-12-10T16:44:54.810Z,31.75
2022-12-10T16:47:21.190Z,32.97
2022-12-10T16:49:47.616Z,33.65
2022-12-10T16:52:16.209Z,32.60
2022-12-10T16:54:42.648Z,32.53
2022-12-10T16:57:13.827Z,32.70
2022-12-10T16:59:40.845Z,31.55
2022-12-10T17:02:18.209Z,32.70
2022-12-10T17:04:45.274Z,32.35
2022-12-10T17:07:11.798Z,33.97
2022-12-10T17:09:40.475Z,33.88
2022-12-10T17:12:08.202Z,34.50
2022-12-10T17:14:39.112Z,32.63
2022-12-10T17:17:06.164Z,32.22
2022-12-10T17:19:35.473Z,33.70
2022-12-10T17:22:03.035Z,32.67
2022-12-10T17:24:30.195Z,34.08
2022-12-10T17:27:02.854Z,34.05
2022-12-10T17:29:33.589Z,32.83
2022-12-10T17:32:00.062Z,34.10
2022-12-10T17:34:26.668Z,34.50
2022-12-10T17:36:53.198Z,33.75
2022-12-10T17:39:22.902Z,32.45
2022-12-10T17:41:50.386Z,33.25
2022-12-10T17:44:16.887Z,31.27
2022-12-10T17:46:43.295Z,33.58
2022-12-10T17:49:14.848Z,34.85
2022-12-10T17:51:42.370Z,34.30
2022-12-10T17:54:08.954Z,34.75
2022-12-10T17:56:35.806Z,33.10
2022-12-10T17:59:02.151Z,33.60
2022-12-10T18:01:28.563Z,33.53
2022-12-10T18:03:55.394Z,32.78
2022-12-10T18:06:27.917Z,32.58
2022-12-10T18:08:56.197Z,32.17
2022-12-10T18:11:31.341Z,32.55
2022-12-10T18:13:57.780Z,34.70
2022-12-10T18:16:29.756Z,34.42
2022-12-10T18:18:58.187Z,33.08
2022-12-10T18:21:25.210Z,32.60
2022-12-10T18:23:51.977Z,34.25
2022-12-10T18:26:22.219Z,32.20
2022-12-10T18:28:59.899Z,36.00
2022-12-10T18:31:35.783Z,34.13
2022-12-10T18:34:07.841Z,34.17
2022-12-10T18:36:37.477Z,33.83
2022-12-10T18:39:22.241Z,36.25
2022-12-10T18:41:50.091Z,34.75
2022-12-10T18:44:21.801Z,37.08
2022-12-10T18:46:48.915Z,35.97
2022-12-10T18:49:15.879Z,35.70
2022-12-10T18:51:42.639Z,35.22
2022-12-10T18:54:09.205Z,35.85
2022-12-10T18:56:36.598Z,36.88
2022-12-10T18:59:04.806Z,37.95
2022-12-10T19:01:31.369Z,37.92
2022-12-10T19:03:58.550Z,38.05
2022-12-10T19:06:27.418Z,38.72
2022-12-10T19:09:17.025Z,40.50
2022-12-10T19:11:42.478Z,39.50
2022-12-10T19:14:08.946Z,39.22
2022-12-10T19:16:35.268Z,40.80
2022-12-10T19:19:02.710Z,39.35
2022-12-10T19:21:30.023Z,39.08
2022-12-10T19:23:56.384Z,38.50
2022-12-10T19:26:30.142Z,39.47
2022-12-10T19:28:57.025Z,38.42
2022-12-10T19:31:23.518Z,38.95
2022-12-10T19:33:50.074Z,37.40
2022-12-10T19:36:24.989Z,38.65
2022-12-10T19:38:53.022Z,37.25
2022-12-10T19:41:19.905Z,37.50
2022-12-10T19:43:46.386Z,36.60
2022-12-10T19:46:13.945Z,35.67
2022-12-10T19:48:40.482Z,37.97
2022-12-10T19:51:07.201Z,36.47
2022-12-10T19:53:33.761Z,36.13
2022-12-10T19:56:00.122Z,34.78
2022-12-10T19:58:26.505Z,35.67
2022-12-10T20:00:53.421Z,35.42
2022-12-10T20:03:19.848Z,34.22
2022-12-10T20:05:46.402Z,36.05
2022-12-10T20:08:12.875Z,34.58
2022-12-10T20:10:39.588Z,33.22
2022-12-10T20:13:05.912Z,32.03
2022-12-10T20:15:32.329Z,33.80
2022-12-10T20:17:58.969Z,31.65
2022-12-10T20:20:29.613Z,29.83
2022-12-10T20:22:55.951Z,31.55
2022-12-10T20:25:25.853Z,31.05
2022-12-10T20:27:52.917Z,31.45
2022-12-10T20:30:25.807Z,29.85
2022-12-10T20:32:52.247Z,30.58
2022-12-10T20:35:20.357Z,30.48
2022-12-10T20:37:47.897Z,32.42
2022-12-10T20:40:33.802Z,31.75
2022-12-10T20:45:27.635Z,26.98
2022-12-10T20:47:54.285Z,27.85
2022-12-10T20:50:20.812Z,31.42
2022-12-10T20:52:47.500Z,31.73
2022-12-10T20:55:14.622Z,32.78
2022-12-10T20:57:41.306Z,32.50
2022-12-10T21:00:16.604Z,33.72
2022-12-10T21:02:43.696Z,32.47
2022-12-10T21:05:10.465Z,33.45
2022-12-10T21:07:37.285Z,32.00
2022-12-10T21:10:05.539Z,33.80
2022-12-10T21:12:32.025Z,35.20
2022-12-10T21:15:05.598Z,33.30
2022-12-10T21:17:34.116Z,31.58
2022-12-10T21:20:00.564Z,33.45
2022-12-10T21:22:26.902Z,33.97
2022-12-10T21:24:53.230Z,32.20
2022-12-10T21:27:19.645Z,33.55
2022-12-10T21:29:46.081Z,32.15
2022-12-10T21:32:12.489Z,32.13
2022-12-10T21:34:38.951Z,31.88
2022-12-10T21:37:05.397Z,32.95
2022-12-10T21:39:31.732Z,32.15
2022-12-10T21:42:16.545Z,34.63
2022-12-10T21:44:42.854Z,30.30
2022-12-10T21:47:09.262Z,31.85
2022-12-10T21:49:35.734Z,34.88
2022-12-10T21:52:02.090Z,32.50
2022-12-10T21:54:28.436Z,33.17
2022-12-10T21:56:55.392Z,33.17
2022-12-10T21:59:22.370Z,32.08
2022-12-10T22:01:48.741Z,33.53
2022-12-10T22:04:17.656Z,34.97
2022-12-10T22:06:44.290Z,33.80
2022-12-10T22:09:13.770Z,32.72
2022-12-10T22:11:40.167Z,33.85
2022-12-10T22:14:06.510Z,33.90
2022-12-10T22:16:33.277Z,34.13
2022-12-10T22:18:59.762Z,35.30
2022-12-10T22:21:26.162Z,33.58
2022-12-10T22:23:53.957Z,33.70
2022-12-10T22:26:21.937Z,35.35
2022-12-10T22:28:49.190Z,37.40
2022-12-10T22:31:15.909Z,35.80
2022-12-10T22:33:42.351Z,36.35
2022-12-10T22:36:09.424Z,36.97
2022-12-10T22:38:36.958Z,35.80
2022-12-10T22:41:05.137Z,37.17
2022-12-10T22:46:20.067Z,35.47
2022-12-10T22:48:46.662Z,36.47
2022-12-10T22:51:13.111Z,35.55
2022-12-10T22:53:39.546Z,35.22
2022-12-10T22:56:08.228Z,33.88
2022-12-10T22:58:35.201Z,33.92
2022-12-10T23:01:01.939Z,38.88
2022-12-10T23:03:28.973Z,36.78
2022-12-10T23:05:56.051Z,35.80
2022-12-10T23:08:23.456Z,35.08
2022-12-10T23:10:50.177Z,36.58
2022-12-10T23:13:21.299Z,33.17
2022-12-10T23:15:50.518Z,34.03
2022-12-10T23:18:17.037Z,35.63
2022-12-10T23:20:49.296Z,36.10
2022-12-10T23:23:20.403Z,36.00
2022-12-10T23:25:47.057Z,35.65
2022-12-10T23:28:13.941Z,36.35
2022-12-10T23:30:40.942Z,36.72
2022-12-10T23:33:08.936Z,36.13
2022-12-10T23:35:39.225Z,36.47
2022-12-10T23:38:05.660Z,36.97
2022-12-10T23:40:32.062Z,33.83
2022-12-10T23:42:59.465Z,32.95
2022-12-10T23:45:25.909Z,31.88
2022-12-10T23:47:52.422Z,34.03
2022-12-10T23:50:18.766Z,34.65
2022-12-10T23:52:45.106Z,34.25
2022-12-10T23:55:11.884Z,34.28
2022-12-10T23:57:38.506Z,35.75
